Weather at Del Bonita / Whetstone International Airport

Public forecast

Using degrees Celsius for public forecast. Weather courtesy of forecast.io.

Closest aviation weather report (METAR) to Del Bonita / Whetstone International Airport

Closest report is Cut Bank International Airport, 28.2 nm (52.2 km) SE.

2024/07/15 12:56 (retrieved 53 minutes ago)

KCTB 151256Z AUTO 12005KT 10SM CLR 13/11 A3006 RMK AO2 SLP150 T01280111

Closest aviation forecast (TAF) to Del Bonita / Whetstone International Airport

Closest forecast is Cut Bank International Airport, 28.2 nm (52.2 km) SE.

2024/07/15 12:39 (retrieved 1 hour ago)

TAF KCTB 151136Z 1512/1612 16008KT P6SM SCT090 FM151800 25011KT P6SM SCT080 SCT180 FM152100 32013G21KT P6SM BKN070 BKN150 FM160300 01008KT P6SM SCT080 BKN120